createdAt,value
2023-04-03T00:00:30.657Z,84.05
2023-04-03T00:01:31.469Z,84.16
2023-04-03T00:02:30.733Z,84.16
2023-04-03T00:03:30.620Z,84.26
2023-04-03T00:04:30.632Z,84.57
2023-04-03T00:05:30.588Z,84.16
2023-04-03T00:06:30.597Z,84.16
2023-04-03T00:07:30.559Z,84.05
2023-04-03T00:08:30.689Z,84.16
2023-04-03T00:09:30.580Z,83.84
2023-04-03T00:10:30.553Z,83.74
2023-04-03T00:11:30.829Z,83.32
2023-04-03T00:12:30.527Z,83.42
2023-04-03T00:13:30.529Z,83.42
2023-04-03T00:14:30.508Z,83.42
2023-04-03T00:15:30.478Z,83.32
2023-04-03T00:16:30.553Z,83.42
2023-04-03T00:17:30.486Z,83.63
2023-04-03T00:18:30.490Z,83.63
2023-04-03T00:19:30.442Z,83.63
2023-04-03T00:20:30.455Z,83.74
2023-04-03T00:21:31.140Z,84.05
2023-04-03T00:22:30.435Z,84.09
2023-04-03T00:23:30.438Z,84.09
2023-04-03T00:24:30.434Z,84.09
2023-04-03T00:25:30.405Z,84.09
2023-04-03T00:26:30.407Z,84.50
2023-04-03T00:27:30.369Z,84.50
2023-04-03T00:28:30.377Z,84.61
2023-04-03T00:29:30.360Z,84.82
2023-04-03T00:30:30.331Z,84.82
2023-04-03T00:31:30.415Z,84.72
2023-04-03T00:32:30.347Z,84.96
2023-04-03T00:33:30.316Z,85.17
2023-04-03T00:34:30.294Z,85.38
2023-04-03T00:35:30.283Z,85.80
2023-04-03T00:36:30.443Z,86.21
2023-04-03T00:37:30.254Z,86.11
2023-04-03T00:38:30.243Z,86.21
2023-04-03T00:39:30.274Z,86.21
2023-04-03T00:40:30.241Z,86.43
2023-04-03T00:41:30.209Z,86.63
2023-04-03T00:42:30.211Z,86.94
2023-04-03T00:43:30.198Z,86.84
2023-04-03T00:44:30.192Z,86.94
2023-04-03T00:45:30.191Z,87.09
2023-04-03T00:46:30.236Z,87.05
2023-04-03T00:47:30.180Z,87.09
2023-04-03T00:48:30.146Z,87.30
2023-04-03T00:49:30.126Z,87.40
2023-04-03T00:50:30.154Z,87.40
2023-04-03T00:51:30.223Z,87.51
2023-04-03T00:52:30.116Z,87.61
2023-04-03T00:53:30.097Z,87.82
2023-04-03T00:54:30.116Z,87.93
2023-04-03T00:55:30.074Z,88.03
2023-04-03T00:56:30.064Z,88.13
2023-04-03T00:57:30.091Z,88.03
2023-04-03T00:58:30.066Z,88.13
2023-04-03T00:59:30.018Z,88.34
2023-04-03T01:00:30.072Z,88.59
2023-04-03T01:01:30.033Z,88.80
2023-04-03T01:02:30.045Z,89.01
2023-04-03T01:03:29.977Z,89.01
2023-04-03T01:04:30.080Z,88.70
2023-04-03T01:05:29.977Z,88.59
2023-04-03T01:06:29.998Z,88.59
2023-04-03T01:07:29.949Z,88.49
2023-04-03T01:08:29.953Z,88.49
2023-04-03T01:09:29.936Z,88.34
2023-04-03T01:10:30.018Z,88.24
2023-04-03T01:11:29.982Z,88.13
2023-04-03T01:12:29.888Z,88.24
2023-04-03T01:13:29.897Z,88.13
2023-04-03T01:14:29.886Z,88.39
2023-04-03T01:15:29.883Z,88.49
2023-04-03T01:16:29.944Z,88.49
2023-04-03T01:17:29.871Z,88.80
2023-04-03T01:18:29.856Z,88.90
2023-04-03T01:19:29.838Z,89.11
2023-04-03T01:20:29.827Z,89.32
2023-04-03T01:21:29.946Z,89.47
2023-04-03T01:22:29.805Z,89.68
2023-04-03T01:23:29.752Z,89.58
2023-04-03T01:24:29.839Z,89.43
2023-04-03T01:25:29.808Z,89.15
2023-04-03T01:26:29.775Z,89.36
2023-04-03T01:27:29.734Z,89.78
2023-04-03T01:28:29.753Z,90.20
2023-04-03T01:29:29.719Z,90.31
2023-04-03T01:30:29.719Z,90.56
2023-04-03T01:31:29.753Z,90.87
2023-04-03T01:32:29.738Z,91.18
2023-04-03T01:33:29.682Z,90.97
2023-04-03T01:34:29.666Z,91.18
2023-04-03T01:35:29.669Z,91.39
2023-04-03T01:36:29.652Z,91.50
2023-04-03T01:37:29.640Z,91.71
2023-04-03T01:38:29.638Z,91.71
2023-04-03T01:39:29.630Z,91.60
2023-04-03T01:40:29.610Z,91.50
2023-04-03T01:41:29.695Z,91.39
2023-04-03T01:42:29.632Z,91.54
2023-04-03T01:43:29.591Z,91.75
2023-04-03T01:44:29.586Z,91.75
2023-04-03T01:45:29.605Z,91.64
2023-04-03T01:46:29.555Z,91.75
2023-04-03T01:47:29.548Z,91.96
2023-04-03T01:48:29.515Z,92.06
2023-04-03T01:49:29.553Z,91.96
2023-04-03T01:50:29.504Z,91.85
2023-04-03T01:51:29.473Z,92.16
2023-04-03T01:52:29.504Z,92.27
2023-04-03T01:53:29.465Z,92.48
2023-04-03T01:54:29.468Z,92.58
2023-04-03T01:55:29.472Z,92.79
2023-04-03T01:56:29.453Z,93.01
2023-04-03T01:57:29.483Z,93.11
2023-04-03T01:58:29.420Z,93.32
2023-04-03T01:59:29.398Z,93.21
2023-04-03T02:00:29.408Z,93.21
2023-04-03T02:01:29.442Z,93.21
2023-04-03T02:02:29.451Z,93.26
2023-04-03T02:03:29.383Z,93.36
2023-04-03T02:04:29.406Z,93.57
2023-04-03T02:05:29.369Z,93.78
2023-04-03T02:06:29.386Z,93.99
2023-04-03T02:07:29.311Z,93.99
2023-04-03T02:08:29.321Z,94.09
2023-04-03T02:09:29.305Z,93.99
2023-04-03T02:10:29.308Z,94.09
2023-04-03T02:11:29.313Z,94.20
2023-04-03T02:12:29.367Z,94.30
2023-04-03T02:13:29.264Z,94.40
2023-04-03T02:14:29.257Z,94.40
2023-04-03T02:15:29.263Z,94.40
2023-04-03T02:16:29.268Z,94.56
2023-04-03T02:17:29.219Z,94.66
2023-04-03T02:18:29.208Z,94.87
2023-04-03T02:19:29.223Z,94.87
2023-04-03T02:20:29.208Z,94.87
2023-04-03T02:21:29.256Z,95.07
2023-04-03T02:22:29.198Z,95.18
2023-04-03T02:23:29.153Z,95.18
2023-04-03T02:24:29.159Z,95.29
2023-04-03T02:25:29.136Z,95.50
2023-04-03T02:26:29.137Z,95.64
2023-04-03T02:27:29.112Z,95.92
2023-04-03T02:28:29.113Z,95.92
2023-04-03T02:29:29.093Z,95.81
2023-04-03T02:30:29.099Z,95.81
2023-04-03T02:31:29.324Z,95.81
2023-04-03T02:32:29.120Z,95.75
2023-04-03T02:33:29.059Z,95.75
2023-04-03T02:34:29.043Z,95.86
2023-04-03T02:35:29.104Z,95.75
2023-04-03T02:36:30.111Z,95.96
2023-04-03T02:37:29.012Z,96.17
2023-04-03T02:38:29.047Z,96.27
2023-04-03T02:39:28.980Z,96.17
2023-04-03T02:40:28.988Z,96.06
2023-04-03T02:41:29.026Z,96.17
2023-04-03T02:42:29.054Z,96.27
2023-04-03T02:43:29.038Z,96.27
2023-04-03T02:44:28.942Z,96.06
2023-04-03T02:45:28.944Z,96.06
2023-04-03T02:46:28.975Z,96.17
2023-04-03T02:47:29.015Z,96.17
2023-04-03T02:48:28.897Z,96.17
2023-04-03T02:49:28.883Z,96.06
2023-04-03T02:50:28.894Z,96.06
2023-04-03T02:51:28.886Z,95.96
2023-04-03T02:52:28.876Z,96.06
2023-04-03T02:53:28.865Z,95.96
2023-04-03T02:54:28.852Z,96.00
2023-04-03T02:55:28.851Z,95.90
2023-04-03T02:56:28.820Z,96.00
2023-04-03T02:57:28.856Z,95.79
2023-04-03T02:58:28.807Z,96.00
2023-04-03T02:59:28.777Z,96.00
2023-04-03T03:00:28.820Z,96.00
2023-04-03T03:01:28.784Z,95.79
2023-04-03T03:02:28.858Z,96.00
2023-04-03T03:03:28.751Z,96.00
2023-04-03T03:04:28.712Z,95.90
2023-04-03T03:05:28.737Z,95.90
2023-04-03T03:06:28.725Z,95.90
2023-04-03T03:07:28.706Z,96.00
2023-04-03T03:08:28.689Z,96.00
2023-04-03T03:09:28.709Z,95.79
2023-04-03T03:10:28.670Z,95.68
2023-04-03T03:11:28.678Z,95.58
2023-04-03T03:12:28.636Z,95.58
2023-04-03T03:13:28.672Z,95.68
2023-04-03T03:14:28.874Z,95.73
2023-04-03T03:15:28.625Z,95.84
2023-04-03T03:16:28.706Z,96.04
2023-04-03T03:17:28.649Z,96.15
2023-04-03T03:18:28.587Z,96.25
2023-04-03T03:19:28.598Z,96.25
2023-04-03T03:20:28.577Z,96.25
2023-04-03T03:21:28.627Z,96.36
2023-04-03T03:22:29.037Z,96.36
2023-04-03T03:23:28.536Z,96.57
2023-04-03T03:24:28.526Z,96.67
2023-04-03T03:25:28.528Z,96.78
2023-04-03T03:26:28.511Z,96.89
2023-04-03T03:27:28.523Z,96.99
2023-04-03T03:28:28.499Z,97.09
2023-04-03T03:29:28.497Z,96.99
2023-04-03T03:30:28.458Z,96.78
2023-04-03T03:31:28.625Z,96.67
2023-04-03T03:32:28.549Z,96.78
2023-04-03T03:33:28.422Z,96.78
2023-04-03T03:34:28.421Z,96.99
2023-04-03T03:35:28.415Z,97.20
2023-04-03T03:36:28.394Z,97.09
2023-04-03T03:37:28.423Z,97.09
2023-04-03T03:38:28.417Z,96.89
2023-04-03T03:39:28.368Z,96.89
2023-04-03T03:40:28.349Z,96.78
2023-04-03T03:41:28.549Z,96.78
2023-04-03T03:42:28.335Z,96.89
2023-04-03T03:43:28.325Z,96.99
2023-04-03T03:44:28.329Z,96.99
2023-04-03T03:45:28.332Z,97.09
2023-04-03T03:46:28.345Z,96.99
2023-04-03T03:47:28.310Z,97.09
2023-04-03T03:48:28.275Z,97.09
2023-04-03T03:49:28.274Z,97.20
2023-04-03T03:50:28.265Z,97.20
2023-04-03T03:51:28.360Z,97.20
2023-04-03T03:52:28.228Z,97.41
2023-04-03T03:53:28.237Z,97.20
2023-04-03T03:54:28.201Z,97.09
2023-04-03T03:55:28.211Z,96.99
2023-04-03T03:56:28.217Z,96.99
2023-04-03T03:57:28.220Z,97.20
2023-04-03T03:58:28.165Z,96.99
2023-04-03T03:59:28.170Z,96.99
2023-04-03T04:00:28.157Z,97.09
2023-04-03T04:01:28.138Z,97.09
2023-04-03T04:02:28.250Z,97.35
2023-04-03T04:03:28.197Z,97.56
2023-04-03T04:04:28.113Z,97.56
2023-04-03T04:05:28.102Z,97.87
2023-04-03T04:06:28.105Z,98.08
2023-04-03T04:07:28.091Z,98.29
2023-04-03T04:08:28.053Z,98.34
2023-04-03T04:09:28.069Z,98.44
2023-04-03T04:10:28.062Z,98.55
2023-04-03T04:11:28.038Z,98.65
2023-04-03T04:12:28.040Z,98.75
2023-04-03T04:13:28.033Z,98.97
2023-04-03T04:14:28.001Z,99.18
2023-04-03T04:15:28.126Z,99.18
2023-04-03T04:16:28.507Z,99.38
2023-04-03T04:17:28.029Z,99.54
2023-04-03T04:18:28.010Z,99.64
2023-04-03T04:19:27.994Z,99.74
2023-04-03T04:20:27.939Z,99.85
2023-04-03T04:21:27.943Z,99.99
2023-04-03T04:22:27.929Z,99.99
2023-04-03T04:23:27.984Z,99.99
2023-04-03T04:24:27.906Z,99.99
2023-04-03T04:25:27.912Z,99.99
2023-04-03T04:26:27.879Z,99.99
2023-04-03T04:27:27.911Z,99.99
2023-04-03T04:28:27.871Z,99.99
2023-04-03T04:29:27.847Z,99.99
2023-04-03T04:30:27.858Z,99.99
2023-04-03T04:31:28.028Z,99.99
2023-04-03T04:32:27.852Z,99.99
2023-04-03T04:33:27.810Z,99.99
2023-04-03T04:34:27.796Z,99.99
2023-04-03T04:35:27.790Z,99.99
2023-04-03T04:36:27.868Z,99.99
2023-04-03T04:37:27.783Z,99.99
2023-04-03T04:38:27.763Z,99.99
2023-04-03T04:39:27.745Z,99.99
2023-04-03T04:40:27.721Z,99.99
2023-04-03T04:41:27.802Z,99.99
2023-04-03T04:42:27.716Z,99.99
2023-04-03T04:43:27.709Z,99.99
2023-04-03T04:44:34.732Z,99.99
2023-04-03T04:45:27.687Z,99.99
2023-04-03T04:46:30.460Z,99.99
2023-04-03T04:47:27.885Z,99.99
2023-04-03T04:48:27.648Z,99.99
2023-04-03T04:49:27.663Z,99.99
2023-04-03T04:50:27.642Z,99.99
2023-04-03T04:51:29.544Z,99.99
2023-04-03T04:52:28.633Z,99.99
2023-04-03T04:53:27.616Z,99.99
2023-04-03T04:54:27.599Z,99.99
2023-04-03T04:55:27.596Z,99.99
2023-04-03T04:56:27.582Z,99.99
2023-04-03T04:57:27.631Z,99.99
2023-04-03T04:58:27.640Z,99.99
2023-04-03T04:59:27.547Z,99.99
2023-04-03T05:00:27.540Z,99.99
2023-04-03T05:01:27.565Z,99.99
2023-04-03T05:02:27.538Z,99.99
2023-04-03T05:03:27.500Z,99.99
2023-04-03T05:04:27.508Z,99.99
2023-04-03T05:05:27.489Z,99.99
2023-04-03T05:06:27.477Z,99.99
2023-04-03T05:07:27.487Z,99.99
2023-04-03T05:08:27.449Z,99.99
2023-04-03T05:09:27.461Z,99.99
2023-04-03T05:10:27.429Z,99.99
2023-04-03T05:11:27.438Z,99.99
2023-04-03T05:12:27.410Z,99.99
2023-04-03T05:13:27.410Z,99.99
2023-04-03T05:14:27.388Z,99.99
2023-04-03T05:15:27.450Z,99.99
2023-04-03T05:16:27.405Z,99.99
2023-04-03T05:17:27.402Z,99.99
2023-04-03T05:18:27.606Z,99.99
2023-04-03T05:19:27.358Z,99.99
2023-04-03T05:20:27.351Z,99.99
2023-04-03T05:21:27.596Z,99.99
2023-04-03T05:22:27.310Z,99.99
2023-04-03T05:23:27.316Z,99.99
2023-04-03T05:24:27.275Z,99.99
2023-04-03T05:25:27.311Z,99.99
2023-04-03T05:26:27.299Z,99.99
2023-04-03T05:27:27.257Z,99.99
2023-04-03T05:28:27.245Z,99.99
2023-04-03T05:29:27.250Z,99.99
2023-04-03T05:30:27.221Z,99.99
2023-04-03T05:31:27.245Z,99.99
2023-04-03T05:32:27.245Z,99.99
2023-04-03T05:33:27.298Z,99.99
2023-04-03T05:34:27.198Z,99.99
2023-04-03T05:35:27.184Z,99.99
2023-04-03T05:36:27.192Z,99.99
2023-04-03T05:37:27.182Z,99.99
2023-04-03T05:38:27.148Z,99.99
2023-04-03T05:39:27.153Z,99.99
2023-04-03T05:40:27.127Z,99.99
2023-04-03T05:41:27.135Z,99.99
2023-04-03T05:42:27.114Z,99.99
2023-04-03T05:43:27.115Z,99.99
2023-04-03T05:44:27.076Z,99.99
2023-04-03T05:45:27.123Z,99.99
2023-04-03T05:46:27.078Z,99.99
2023-04-03T05:47:27.090Z,99.99
2023-04-03T05:48:27.033Z,99.99
2023-04-03T05:49:27.068Z,99.99
2023-04-03T05:50:27.033Z,99.99
2023-04-03T05:51:27.060Z,99.97
2023-04-03T05:52:27.001Z,99.61
2023-04-03T05:53:26.998Z,99.40
2023-04-03T05:54:26.979Z,99.30
2023-04-03T05:55:26.979Z,98.98
2023-04-03T05:56:26.950Z,98.88
2023-04-03T05:57:26.984Z,98.88
2023-04-03T05:58:26.935Z,98.46
2023-04-03T05:59:26.936Z,98.35
2023-04-03T06:00:26.922Z,98.10
2023-04-03T06:01:26.909Z,97.89
2023-04-03T06:02:26.943Z,97.78
2023-04-03T06:03:26.930Z,97.68
2023-04-03T06:04:26.943Z,97.58
2023-04-03T06:05:26.862Z,97.32
2023-04-03T06:06:26.850Z,97.11
2023-04-03T06:07:26.849Z,96.90
2023-04-03T06:08:26.826Z,96.69
2023-04-03T06:09:26.828Z,96.55
2023-04-03T06:10:26.826Z,96.23
2023-04-03T06:11:26.815Z,96.02
2023-04-03T06:12:26.788Z,95.81
2023-04-03T06:13:26.810Z,95.29
2023-04-03T06:14:26.781Z,94.93
2023-04-03T06:15:26.762Z,94.62
2023-04-03T06:16:26.795Z,94.30
2023-04-03T06:17:26.787Z,93.78
2023-04-03T06:18:26.736Z,93.63
2023-04-03T06:19:26.745Z,93.52
2023-04-03T06:20:26.973Z,93.21
2023-04-03T06:21:26.707Z,93.01
2023-04-03T06:22:26.722Z,92.90
2023-04-03T06:23:26.684Z,92.69
2023-04-03T06:24:26.675Z,92.38
2023-04-03T06:25:26.665Z,92.02
2023-04-03T06:26:26.649Z,91.91
2023-04-03T06:27:26.634Z,91.60
2023-04-03T06:28:27.414Z,91.50
2023-04-03T06:29:26.618Z,91.71
2023-04-03T06:30:26.594Z,91.46
2023-04-03T06:31:26.704Z,91.14
2023-04-03T06:32:26.586Z,90.72
2023-04-03T06:33:26.598Z,90.09
2023-04-03T06:34:26.566Z,89.89
2023-04-03T06:35:26.571Z,89.89
2023-04-03T06:36:26.589Z,89.99
2023-04-03T06:37:26.558Z,90.06
2023-04-03T06:38:26.508Z,89.74
2023-04-03T06:39:26.534Z,89.32
2023-04-03T06:40:26.494Z,89.11
2023-04-03T06:41:26.486Z,88.65
2023-04-03T06:42:26.491Z,87.93
2023-04-03T06:43:26.467Z,87.51
2023-04-03T06:44:26.486Z,86.88
2023-04-03T06:45:26.495Z,86.36
2023-04-03T06:46:26.478Z,86.46
2023-04-03T06:47:26.538Z,86.99
2023-04-03T06:48:26.417Z,87.40
2023-04-03T06:49:26.421Z,87.05
2023-04-03T06:50:26.502Z,86.94
2023-04-03T06:51:26.482Z,86.74
2023-04-03T06:52:26.383Z,86.11
2023-04-03T06:53:26.367Z,86.18
2023-04-03T06:54:26.352Z,86.49
2023-04-03T06:55:26.355Z,85.97
2023-04-03T06:56:26.358Z,85.55
2023-04-03T06:57:26.384Z,85.13
2023-04-03T06:58:26.316Z,84.61
2023-04-03T06:59:26.307Z,84.19
2023-04-03T07:00:26.476Z,83.01
2023-04-03T07:01:26.393Z,83.11
2023-04-03T07:02:26.316Z,83.32
2023-04-03T07:03:26.278Z,82.80
2023-04-03T07:04:26.286Z,83.01
2023-04-03T07:05:26.258Z,83.07
2023-04-03T07:06:26.228Z,81.93
2023-04-03T07:07:26.236Z,81.41
2023-04-03T07:08:26.212Z,81.20
2023-04-03T07:09:26.204Z,81.20
2023-04-03T07:10:26.188Z,81.51
2023-04-03T07:11:26.201Z,80.47
2023-04-03T07:12:26.179Z,80.47
2023-04-03T07:13:26.179Z,80.88
2023-04-03T07:14:26.378Z,81.16
2023-04-03T07:15:26.135Z,80.12
2023-04-03T07:16:26.183Z,80.02
2023-04-03T07:17:26.119Z,79.91
2023-04-03T07:18:26.123Z,79.28
2023-04-03T07:19:26.088Z,79.70
2023-04-03T07:20:26.101Z,79.60
2023-04-03T07:21:26.080Z,79.04
2023-04-03T07:22:26.167Z,78.94
2023-04-03T07:23:26.041Z,79.14
2023-04-03T07:24:26.046Z,78.28
2023-04-03T07:25:26.037Z,77.65
2023-04-03T07:26:26.029Z,77.13
2023-04-03T07:27:26.002Z,76.78
2023-04-03T07:28:26.007Z,76.16
2023-04-03T07:29:26.024Z,75.92
2023-04-03T07:30:25.988Z,75.29
2023-04-03T07:31:26.017Z,74.29
2023-04-03T07:32:25.959Z,72.87
2023-04-03T07:33:26.009Z,70.42
2023-04-03T07:34:25.951Z,68.90
2023-04-03T07:35:25.953Z,69.01
2023-04-03T07:36:25.976Z,68.28
2023-04-03T07:37:25.896Z,69.27
2023-04-03T07:38:25.905Z,69.10
2023-04-03T07:39:25.891Z,69.21
2023-04-03T07:40:25.883Z,70.04
2023-04-03T07:41:25.857Z,70.59
2023-04-03T07:42:25.854Z,69.76
2023-04-03T07:43:25.863Z,70.48
2023-04-03T07:44:25.837Z,71.73
2023-04-03T07:45:25.869Z,71.62
2023-04-03T07:46:25.854Z,71.11
2023-04-03T07:47:25.847Z,71.11
2023-04-03T07:48:25.813Z,70.79
2023-04-03T07:49:25.780Z,71.42
2023-04-03T07:50:25.784Z,71.42
2023-04-03T07:51:25.766Z,70.59
2023-04-03T07:52:25.754Z,71.11
2023-04-03T07:53:25.797Z,70.97
2023-04-03T07:54:25.729Z,71.45
2023-04-03T07:55:25.713Z,70.21
2023-04-03T07:56:25.712Z,69.14
2023-04-03T07:57:25.744Z,68.66
2023-04-03T07:58:25.703Z,68.15
2023-04-03T07:59:25.647Z,67.18
2023-04-03T08:00:25.662Z,65.99
2023-04-03T08:01:25.653Z,65.94
2023-04-03T08:02:25.682Z,66.52
2023-04-03T08:03:25.825Z,67.79
2023-04-03T08:04:25.695Z,65.72
2023-04-03T08:05:25.620Z,61.98
2023-04-03T08:06:37.370Z,60.44
2023-04-03T08:07:26.591Z,59.33
2023-04-03T08:08:25.717Z,55.64
2023-04-03T08:09:25.566Z,54.97
2023-04-03T08:10:25.587Z,54.13
2023-04-03T08:11:25.541Z,53.44
2023-04-03T08:12:25.551Z,51.87
2023-04-03T08:13:25.528Z,50.39
2023-04-03T08:14:25.533Z,48.73
2023-04-03T08:15:25.511Z,49.77
2023-04-03T08:16:25.549Z,51.56
2023-04-03T08:17:25.589Z,50.06
2023-04-03T08:18:25.507Z,47.89
2023-04-03T08:19:26.887Z,47.25
2023-04-03T08:20:25.553Z,46.37
2023-04-03T08:21:25.439Z,45.96
2023-04-03T08:22:25.440Z,45.94
2023-04-03T08:23:25.417Z,44.78
2023-04-03T08:24:25.575Z,43.02
2023-04-03T08:25:25.398Z,43.41
2023-04-03T08:26:25.400Z,43.30
2023-04-03T08:27:25.385Z,43.35
2023-04-03T08:28:25.376Z,44.24
2023-04-03T08:29:25.345Z,45.31
2023-04-03T08:30:25.363Z,44.49
2023-04-03T08:31:25.461Z,42.47
2023-04-03T08:32:25.371Z,42.00
2023-04-03T08:33:25.326Z,41.13
2023-04-03T08:34:25.320Z,41.30
2023-04-03T08:35:25.307Z,44.79
2023-04-03T08:36:25.339Z,45.43
2023-04-03T08:37:25.297Z,42.88
2023-04-03T08:38:25.262Z,41.59
2023-04-03T08:39:25.255Z,43.51
2023-04-03T08:40:25.248Z,46.15
2023-04-03T08:41:25.203Z,45.70
2023-04-03T08:42:25.218Z,46.35
2023-04-03T08:43:25.269Z,44.55
2023-04-03T08:44:25.215Z,44.14
2023-04-03T08:45:25.197Z,43.08
2023-04-03T08:46:25.314Z,43.59
2023-04-03T08:47:25.194Z,42.41
2023-04-03T08:48:25.168Z,42.30
2023-04-03T08:49:25.174Z,42.06
2023-04-03T08:50:25.153Z,41.71
2023-04-03T08:51:25.111Z,41.59
2023-04-03T08:52:25.128Z,40.43
2023-04-03T08:53:25.116Z,41.05
2023-04-03T08:54:25.094Z,39.31
2023-04-03T08:55:25.232Z,38.48
2023-04-03T08:56:25.090Z,39.50
2023-04-03T08:57:25.097Z,39.42
2023-04-03T08:58:25.070Z,38.80
2023-04-03T08:59:25.033Z,38.82
2023-04-03T09:00:25.025Z,39.17
2023-04-03T09:01:25.058Z,39.45
2023-04-03T09:02:26.044Z,39.86
2023-04-03T09:03:25.149Z,39.92
2023-04-03T09:04:25.040Z,39.31
2023-04-03T09:05:24.960Z,39.53
2023-04-03T09:06:24.953Z,38.42
2023-04-03T09:07:24.951Z,39.01
2023-04-03T09:08:24.938Z,38.58
2023-04-03T09:09:25.877Z,39.23
2023-04-03T09:10:25.892Z,38.72
2023-04-03T09:11:24.910Z,38.92
2023-04-03T09:12:24.917Z,39.04
2023-04-03T09:13:24.879Z,39.06
2023-04-03T09:14:24.878Z,38.42
2023-04-03T09:15:35.344Z,38.40
2023-04-03T09:16:25.895Z,39.57
2023-04-03T09:17:24.869Z,40.57
2023-04-03T09:18:24.836Z,40.06
2023-04-03T09:19:24.862Z,39.11
2023-04-03T09:20:24.828Z,38.65
2023-04-03T09:21:25.881Z,36.82
2023-04-03T09:22:24.817Z,37.14
2023-04-03T09:23:24.758Z,37.92
2023-04-03T09:24:24.763Z,37.96
2023-04-03T09:25:24.786Z,37.83
2023-04-03T09:26:24.932Z,37.54
2023-04-03T09:27:24.737Z,36.82
2023-04-03T09:28:24.756Z,35.86
2023-04-03T09:29:24.732Z,35.77
2023-04-03T09:30:24.725Z,35.58
2023-04-03T09:31:24.691Z,36.58
2023-04-03T09:32:24.686Z,35.46
2023-04-03T09:33:24.682Z,34.92
2023-04-03T09:34:24.674Z,35.80
2023-04-03T09:35:32.783Z,37.90
2023-04-03T09:36:25.666Z,36.44
2023-04-03T09:37:24.623Z,35.19
2023-04-03T09:38:24.638Z,34.78
2023-04-03T09:39:24.623Z,35.17
2023-04-03T09:40:24.603Z,39.47
2023-04-03T09:41:24.580Z,39.43
2023-04-03T09:42:24.577Z,37.73
2023-04-03T09:43:24.547Z,35.82
2023-04-03T09:44:24.567Z,34.24
2023-04-03T09:45:24.549Z,34.36
2023-04-03T09:46:24.567Z,33.92
2023-04-03T09:47:24.545Z,33.69
2023-04-03T09:48:24.599Z,34.43
2023-04-03T09:49:24.498Z,34.43
2023-04-03T09:50:24.504Z,34.11
2023-04-03T09:51:24.482Z,34.08
2023-04-03T09:52:24.457Z,33.28
2023-04-03T09:53:24.453Z,34.85
2023-04-03T09:54:24.463Z,35.04
2023-04-03T09:55:24.426Z,36.58
2023-04-03T09:56:24.442Z,39.89
2023-04-03T09:57:24.612Z,41.58
2023-04-03T09:58:24.403Z,41.83
2023-04-03T09:59:24.409Z,41.02
2023-04-03T10:00:24.389Z,38.60
2023-04-03T10:01:24.416Z,37.65
2023-04-03T10:02:24.424Z,38.11
2023-04-03T10:03:24.351Z,37.87
2023-04-03T10:04:24.376Z,40.22
2023-04-03T10:05:24.348Z,41.42
2023-04-03T10:06:25.314Z,38.53
2023-04-03T10:07:24.300Z,38.80
2023-04-03T10:08:24.303Z,36.27
2023-04-03T10:09:24.311Z,35.02
2023-04-03T10:10:24.286Z,36.73
2023-04-03T10:11:24.293Z,38.62
2023-04-03T10:12:24.245Z,36.73
2023-04-03T10:13:24.213Z,35.90
2023-04-03T10:14:24.236Z,35.19
2023-04-03T10:15:24.225Z,35.71
2023-04-03T10:16:24.273Z,35.02
2023-04-03T10:17:24.382Z,36.25
2023-04-03T10:18:24.892Z,36.65
2023-04-03T10:19:24.171Z,37.04
2023-04-03T10:20:24.422Z,35.03
2023-04-03T10:21:27.520Z,38.18
2023-04-03T10:22:24.153Z,39.69
2023-04-03T10:23:24.149Z,40.35
2023-04-03T10:24:24.129Z,42.22
2023-04-03T10:25:24.112Z,40.38
2023-04-03T10:26:24.116Z,38.91
2023-04-03T10:27:24.086Z,39.73
2023-04-03T10:28:24.112Z,40.50
2023-04-03T10:29:24.079Z,41.07
2023-04-03T10:30:24.061Z,42.65
2023-04-03T10:31:24.066Z,43.81
2023-04-03T10:32:24.070Z,45.36
2023-04-03T10:33:24.013Z,47.33
2023-04-03T10:34:24.055Z,47.12
2023-04-03T10:35:24.025Z,48.07
2023-04-03T10:36:23.994Z,47.99
2023-04-03T10:37:24.010Z,47.67
2023-04-03T10:38:24.004Z,48.21
2023-04-03T10:39:23.961Z,48.83
2023-04-03T10:40:23.945Z,49.78
2023-04-03T10:41:23.986Z,50.32
2023-04-03T10:42:23.962Z,50.60
2023-04-03T10:43:23.896Z,49.37
2023-04-03T10:44:23.911Z,49.60
2023-04-03T10:45:23.885Z,49.39
2023-04-03T10:46:23.896Z,48.98
2023-04-03T10:47:23.967Z,49.21
2023-04-03T10:48:23.840Z,49.44
2023-04-03T10:49:23.857Z,49.35
2023-04-03T10:50:23.836Z,49.85
2023-04-03T10:51:23.864Z,50.75
2023-04-03T10:52:23.823Z,50.93
2023-04-03T10:53:23.827Z,49.68
2023-04-03T10:54:23.811Z,48.52
2023-04-03T10:55:23.831Z,48.21
2023-04-03T10:56:23.758Z,48.42
2023-04-03T10:57:24.745Z,48.65
2023-04-03T10:58:23.779Z,48.77
2023-04-03T10:59:23.772Z,49.60
2023-04-03T11:00:23.747Z,49.72
2023-04-03T11:01:23.749Z,49.31
2023-04-03T11:02:23.774Z,49.62
2023-04-03T11:03:23.784Z,48.36
2023-04-03T11:04:23.701Z,48.57
2023-04-03T11:05:23.666Z,48.59
2023-04-03T11:06:23.673Z,48.49
2023-04-03T11:07:23.652Z,48.69
2023-04-03T11:08:23.673Z,49.62
2023-04-03T11:09:23.668Z,49.62
2023-04-03T11:10:23.633Z,48.57
2023-04-03T11:11:23.619Z,48.98
2023-04-03T11:12:23.604Z,48.69
2023-04-03T11:13:23.594Z,48.80
2023-04-03T11:14:23.603Z,49.10
2023-04-03T11:15:23.740Z,47.97
2023-04-03T11:16:23.669Z,47.79
2023-04-03T11:17:23.629Z,47.38
2023-04-03T11:18:23.561Z,48.38
2023-04-03T11:19:23.518Z,47.77
2023-04-03T11:20:23.535Z,47.25
2023-04-03T11:21:23.539Z,47.66
2023-04-03T11:22:23.519Z,46.82
2023-04-03T11:23:23.484Z,46.30
2023-04-03T11:24:23.504Z,45.97
2023-04-03T11:25:23.465Z,46.67
2023-04-03T11:26:23.471Z,44.90
2023-04-03T11:27:23.607Z,44.47
2023-04-03T11:28:23.443Z,44.24
2023-04-03T11:29:34.294Z,45.25
2023-04-03T11:30:24.488Z,43.90
2023-04-03T11:31:23.450Z,43.28
2023-04-03T11:32:23.382Z,43.20
2023-04-03T11:33:23.530Z,44.31
2023-04-03T11:34:23.383Z,43.30
2023-04-03T11:35:23.370Z,43.61
2023-04-03T11:36:27.713Z,42.71
2023-04-03T11:37:24.369Z,43.63
2023-04-03T11:38:23.315Z,43.24
2023-04-03T11:39:23.313Z,43.98
2023-04-03T11:40:23.310Z,44.39
2023-04-03T11:41:23.346Z,43.85
2023-04-03T11:42:23.288Z,44.17
2023-04-03T11:43:23.283Z,42.91
2023-04-03T11:44:23.247Z,42.81
2023-04-03T11:45:23.349Z,43.85
2023-04-03T11:46:23.266Z,43.40
2023-04-03T11:47:23.244Z,41.62
2023-04-03T11:48:25.221Z,42.11
2023-04-03T11:49:23.225Z,40.66
2023-04-03T11:50:23.186Z,40.37
2023-04-03T11:51:23.203Z,40.00
2023-04-03T11:52:23.163Z,40.94
2023-04-03T11:53:23.174Z,40.82
2023-04-03T11:54:25.031Z,41.29
2023-04-03T11:55:23.167Z,40.76
2023-04-03T11:56:23.129Z,40.01
2023-04-03T11:57:23.161Z,38.85
2023-04-03T11:58:23.105Z,38.11
2023-04-03T11:59:23.098Z,38.85
2023-04-03T12:00:23.081Z,38.27
2023-04-03T12:01:23.125Z,38.92
2023-04-03T12:02:24.844Z,40.06
2023-04-03T12:03:23.151Z,40.99
2023-04-03T12:04:23.160Z,41.62
2023-04-03T12:05:23.059Z,42.66
2023-04-03T12:06:23.013Z,42.38
2023-04-03T12:07:23.005Z,42.91
2023-04-03T12:08:22.997Z,43.91
2023-04-03T12:09:23.014Z,43.63
2023-04-03T12:10:31.799Z,43.40
2023-04-03T12:11:23.976Z,41.33
2023-04-03T12:12:23.015Z,41.46
2023-04-03T12:13:22.944Z,41.11
2023-04-03T12:14:22.937Z,40.88
2023-04-03T12:15:22.944Z,41.91
2023-04-03T12:16:23.089Z,41.80
2023-04-03T12:17:22.912Z,41.17
2023-04-03T12:18:22.885Z,41.68
2023-04-03T12:19:26.632Z,40.06
2023-04-03T12:20:23.859Z,40.20
2023-04-03T12:21:22.941Z,41.14
2023-04-03T12:22:22.855Z,42.09
2023-04-03T12:23:22.830Z,42.81
2023-04-03T12:24:22.819Z,41.25
2023-04-03T12:25:22.820Z,40.96
2023-04-03T12:26:22.908Z,41.37
2023-04-03T12:27:22.799Z,42.27
2023-04-03T12:28:22.778Z,41.93
2023-04-03T12:29:22.802Z,41.41
2023-04-03T12:30:22.773Z,40.72
2023-04-03T12:31:22.787Z,40.92
2023-04-03T12:32:22.825Z,39.55
2023-04-03T12:33:22.857Z,40.06
2023-04-03T12:34:22.698Z,40.88
2023-04-03T12:35:22.720Z,40.08
2023-04-03T12:36:22.777Z,40.80
2023-04-03T12:37:22.731Z,41.09
2023-04-03T12:38:22.679Z,41.29
2023-04-03T12:39:22.673Z,40.27
2023-04-03T12:40:22.665Z,40.78
2023-04-03T12:41:22.706Z,39.65
2023-04-03T12:42:22.616Z,39.47
2023-04-03T12:43:22.643Z,40.25
2023-04-03T12:44:22.596Z,40.13
2023-04-03T12:45:22.602Z,40.76
2023-04-03T12:46:22.723Z,39.53
2023-04-03T12:47:22.623Z,39.94
2023-04-03T12:48:22.572Z,40.15
2023-04-03T12:49:22.572Z,39.96
2023-04-03T12:50:22.532Z,40.25
2023-04-03T12:51:22.531Z,40.13
2023-04-03T12:52:22.520Z,39.39